sensor_id;sensor_type;location;lat;lon;timestamp;P1;P2;P0
70554;PMS5003;58104;52.744;15.242;2023-12-07T00:00:56;1;1;
70554;PMS5003;58104;52.744;15.242;2023-12-07T00:03:21;0;0;
70554;PMS5003;58104;52.744;15.242;2023-12-07T00:05:46;1;1;
70554;PMS5003;58104;52.744;15.242;2023-12-07T00:08:12;1;1;
70554;PMS5003;58104;52.744;15.242;2023-12-07T00:10:37;1;1;
70554;PMS5003;58104;52.744;15.242;2023-12-07T00:13:03;0;0;
70554;PMS5003;58104;52.744;15.242;2023-12-07T00:15:28;0;0;
70554;PMS5003;58104;52.744;15.242;2023-12-07T00:17:54;0;0;
70554;PMS5003;58104;52.744;15.242;2023-12-07T00:20:19;1;1;
70554;PMS5003;58104;52.744;15.242;2023-12-07T00:22:44;1;1;
70554;PMS5003;58104;52.744;15.242;2023-12-07T00:25:10;0;0;
70554;PMS5003;58104;52.744;15.242;2023-12-07T00:27:35;0;0;
70554;PMS5003;58104;52.744;15.242;2023-12-07T00:30:01;4;2;
70554;PMS5003;58104;52.744;15.242;2023-12-07T00:32:26;2;2;
70554;PMS5003;58104;52.744;15.242;2023-12-07T00:34:52;0;0;
70554;PMS5003;58104;52.744;15.242;2023-12-07T00:37:17;0;0;
70554;PMS5003;58104;52.744;15.242;2023-12-07T00:39:42;0;0;
70554;PMS5003;58104;52.744;15.242;2023-12-07T00:42:08;2;2;
70554;PMS5003;58104;52.744;15.242;2023-12-07T00:44:33;1;1;
70554;PMS5003;58104;52.744;15.242;2023-12-07T00:46:59;0;0;
70554;PMS5003;58104;52.744;15.242;2023-12-07T00:49:24;2;2;
70554;PMS5003;58104;52.744;15.242;2023-12-07T00:51:50;0;0;
70554;PMS5003;58104;52.744;15.242;2023-12-07T00:54:15;0;0;
70554;PMS5003;58104;52.744;15.242;2023-12-07T00:56:41;1;1;
70554;PMS5003;58104;52.744;15.242;2023-12-07T00:59:06;0;0;
70554;PMS5003;58104;52.744;15.242;2023-12-07T01:01:32;1;1;
70554;PMS5003;58104;52.744;15.242;2023-12-07T01:03:57;0;0;
70554;PMS5003;58104;52.744;15.242;2023-12-07T01:06:22;0;0;
70554;PMS5003;58104;52.744;15.242;2023-12-07T01:08:48;1;1;
70554;PMS5003;58104;52.744;15.242;2023-12-07T01:11:13;2;0;
70554;PMS5003;58104;52.744;15.242;2023-12-07T01:13:39;0;0;
70554;PMS5003;58104;52.744;15.242;2023-12-07T01:16:04;1;0;
70554;PMS5003;58104;52.744;15.242;2023-12-07T01:18:29;1;0;
70554;PMS5003;58104;52.744;15.242;2023-12-07T01:20:55;2;0;
70554;PMS5003;58104;52.744;15.242;2023-12-07T01:23:20;1;1;
70554;PMS5003;58104;52.744;15.242;2023-12-07T01:25:46;3;3;
70554;PMS5003;58104;52.744;15.242;2023-12-07T01:28:11;1;1;
70554;PMS5003;58104;52.744;15.242;2023-12-07T01:30:36;0;0;
70554;PMS5003;58104;52.744;15.242;2023-12-07T01:33:02;2;2;
70554;PMS5003;58104;52.744;15.242;2023-12-07T01:35:27;2;2;
70554;PMS5003;58104;52.744;15.242;2023-12-07T01:37:53;0;0;
70554;PMS5003;58104;52.744;15.242;2023-12-07T01:40:18;0;0;
70554;PMS5003;58104;52.744;15.242;2023-12-07T01:45:09;0;0;
70554;PMS5003;58104;52.744;15.242;2023-12-07T01:47:35;1;1;
70554;PMS5003;58104;52.744;15.242;2023-12-07T01:50:00;1;1;
70554;PMS5003;58104;52.744;15.242;2023-12-07T01:52:26;1;0;
70554;PMS5003;58104;52.744;15.242;2023-12-07T01:54:51;1;1;
70554;PMS5003;58104;52.744;15.242;2023-12-07T01:57:16;1;1;
70554;PMS5003;58104;52.744;15.242;2023-12-07T01:59:42;0;0;
70554;PMS5003;58104;52.744;15.242;2023-12-07T02:02:07;0;0;
70554;PMS5003;58104;52.744;15.242;2023-12-07T02:04:33;0;0;
70554;PMS5003;58104;52.744;15.242;2023-12-07T02:06:58;1;1;
70554;PMS5003;58104;52.744;15.242;2023-12-07T02:09:23;1;1;
70554;PMS5003;58104;52.744;15.242;2023-12-07T02:11:49;1;1;
70554;PMS5003;58104;52.744;15.242;2023-12-07T02:14:14;1;1;
70554;PMS5003;58104;52.744;15.242;2023-12-07T02:16:42;1;1;
70554;PMS5003;58104;52.744;15.242;2023-12-07T02:19:08;0;0;
70554;PMS5003;58104;52.744;15.242;2023-12-07T02:21:33;0;0;
70554;PMS5003;58104;52.744;15.242;2023-12-07T02:23:56;0;0;
70554;PMS5003;58104;52.744;15.242;2023-12-07T02:26:22;0;0;
70554;PMS5003;58104;52.744;15.242;2023-12-07T02:28:47;1;0;
70554;PMS5003;58104;52.744;15.242;2023-12-07T02:31:12;1;1;
70554;PMS5003;58104;52.744;15.242;2023-12-07T02:33:38;1;1;
70554;PMS5003;58104;52.744;15.242;2023-12-07T02:36:03;2;1;
70554;PMS5003;58104;52.744;15.242;2023-12-07T02:38:29;0;0;
70554;PMS5003;58104;52.744;15.242;2023-12-07T02:40:54;1;1;
70554;PMS5003;58104;52.744;15.242;2023-12-07T02:43:19;3;2;
70554;PMS5003;58104;52.744;15.242;2023-12-07T02:45:45;1;1;
70554;PMS5003;58104;52.744;15.242;2023-12-07T02:48:11;0;0;
70554;PMS5003;58104;52.744;15.242;2023-12-07T02:50:36;0;0;
70554;PMS5003;58104;52.744;15.242;2023-12-07T02:53:01;1;1;
70554;PMS5003;58104;52.744;15.242;2023-12-07T02:55:27;2;1;
70554;PMS5003;58104;52.744;15.242;2023-12-07T02:57:52;0;0;
70554;PMS5003;58104;52.744;15.242;2023-12-07T03:00:18;1;1;
70554;PMS5003;58104;52.744;15.242;2023-12-07T03:02:43;0;0;
70554;PMS5003;58104;52.744;15.242;2023-12-07T03:05:08;0;0;
70554;PMS5003;58104;52.744;15.242;2023-12-07T03:07:34;0;0;
70554;PMS5003;58104;52.744;15.242;2023-12-07T03:09:59;1;1;
70554;PMS5003;58104;52.744;15.242;2023-12-07T03:12:25;0;0;
70554;PMS5003;58104;52.744;15.242;2023-12-07T03:14:50;0;0;
70554;PMS5003;58104;52.744;15.242;2023-12-07T03:17:16;0;0;
70554;PMS5003;58104;52.744;15.242;2023-12-07T03:19:41;0;0;
70554;PMS5003;58104;52.744;15.242;2023-12-07T03:22:07;0;0;
70554;PMS5003;58104;52.744;15.242;2023-12-07T03:24:32;2;0;
70554;PMS5003;58104;52.744;15.242;2023-12-07T03:26:57;3;1;
70554;PMS5003;58104;52.744;15.242;2023-12-07T03:29:23;0;0;
70554;PMS5003;58104;52.744;15.242;2023-12-07T03:31:48;1;1;
70554;PMS5003;58104;52.744;15.242;2023-12-07T03:34:13;0;0;
70554;PMS5003;58104;52.744;15.242;2023-12-07T03:36:39;1;1;
70554;PMS5003;58104;52.744;15.242;2023-12-07T03:39:04;0;0;
70554;PMS5003;58104;52.744;15.242;2023-12-07T03:41:30;0;0;
70554;PMS5003;58104;52.744;15.242;2023-12-07T03:43:55;0;0;
70554;PMS5003;58104;52.744;15.242;2023-12-07T03:46:20;3;1;
70554;PMS5003;58104;52.744;15.242;2023-12-07T03:48:46;0;0;
70554;PMS5003;58104;52.744;15.242;2023-12-07T03:51:12;0;0;
70554;PMS5003;58104;52.744;15.242;2023-12-07T03:53:37;0;0;
70554;PMS5003;58104;52.744;15.242;2023-12-07T03:56:02;0;0;
70554;PMS5003;58104;52.744;15.242;2023-12-07T03:58:28;0;0;
70554;PMS5003;58104;52.744;15.242;2023-12-07T04:00:53;1;1;
70554;PMS5003;58104;52.744;15.242;2023-12-07T04:03:18;0;0;
70554;PMS5003;58104;52.744;15.242;2023-12-07T04:05:44;1;1;
70554;PMS5003;58104;52.744;15.242;2023-12-07T04:08:09;1;1;
70554;PMS5003;58104;52.744;15.242;2023-12-07T04:10:35;4;2;
70554;PMS5003;58104;52.744;15.242;2023-12-07T04:13:00;1;1;
70554;PMS5003;58104;52.744;15.242;2023-12-07T04:15:25;1;1;
70554;PMS5003;58104;52.744;15.242;2023-12-07T04:17:51;0;0;
70554;PMS5003;58104;52.744;15.242;2023-12-07T04:20:16;0;0;
70554;PMS5003;58104;52.744;15.242;2023-12-07T04:22:42;0;0;
70554;PMS5003;58104;52.744;15.242;2023-12-07T04:25:08;0;0;
70554;PMS5003;58104;52.744;15.242;2023-12-07T04:27:33;2;2;
70554;PMS5003;58104;52.744;15.242;2023-12-07T04:29:58;1;1;
70554;PMS5003;58104;52.744;15.242;2023-12-07T04:32:23;0;0;
70554;PMS5003;58104;52.744;15.242;2023-12-07T04:34:49;0;0;
70554;PMS5003;58104;52.744;15.242;2023-12-07T04:37:14;1;1;
70554;PMS5003;58104;52.744;15.242;2023-12-07T04:39:40;1;1;
70554;PMS5003;58104;52.744;15.242;2023-12-07T04:42:05;0;0;
70554;PMS5003;58104;52.744;15.242;2023-12-07T04:44:30;0;0;
70554;PMS5003;58104;52.744;15.242;2023-12-07T04:46:56;1;0;
70554;PMS5003;58104;52.744;15.242;2023-12-07T04:49:21;1;1;
70554;PMS5003;58104;52.744;15.242;2023-12-07T04:51:47;0;0;
70554;PMS5003;58104;52.744;15.242;2023-12-07T04:54:12;0;0;
70554;PMS5003;58104;52.744;15.242;2023-12-07T04:56:38;1;1;
70554;PMS5003;58104;52.744;15.242;2023-12-07T04:59:03;0;0;
70554;PMS5003;58104;52.744;15.242;2023-12-07T05:01:28;0;0;
70554;PMS5003;58104;52.744;15.242;2023-12-07T05:03:54;0;0;
70554;PMS5003;58104;52.744;15.242;2023-12-07T05:06:19;0;0;
70554;PMS5003;58104;52.744;15.242;2023-12-07T05:08:45;0;0;
70554;PMS5003;58104;52.744;15.242;2023-12-07T05:11:10;0;0;
70554;PMS5003;58104;52.744;15.242;2023-12-07T05:13:36;1;1;
70554;PMS5003;58104;52.744;15.242;2023-12-07T05:16:01;0;0;
70554;PMS5003;58104;52.744;15.242;2023-12-07T05:18:27;0;0;
70554;PMS5003;58104;52.744;15.242;2023-12-07T05:20:52;1;1;
70554;PMS5003;58104;52.744;15.242;2023-12-07T05:23:17;0;0;
70554;PMS5003;58104;52.744;15.242;2023-12-07T05:25:43;0;0;
70554;PMS5003;58104;52.744;15.242;2023-12-07T05:28:08;0;0;
70554;PMS5003;58104;52.744;15.242;2023-12-07T05:30:34;1;1;
70554;PMS5003;58104;52.744;15.242;2023-12-07T05:32:59;1;1;
70554;PMS5003;58104;52.744;15.242;2023-12-07T05:35:24;0;0;
70554;PMS5003;58104;52.744;15.242;2023-12-07T05:37:50;1;1;
70554;PMS5003;58104;52.744;15.242;2023-12-07T05:40:15;0;0;
70554;PMS5003;58104;52.744;15.242;2023-12-07T05:42:41;0;0;
70554;PMS5003;58104;52.744;15.242;2023-12-07T05:45:06;0;0;
70554;PMS5003;58104;52.744;15.242;2023-12-07T05:47:31;0;0;
70554;PMS5003;58104;52.744;15.242;2023-12-07T05:49:57;1;1;
70554;PMS5003;58104;52.744;15.242;2023-12-07T05:52:22;2;2;
70554;PMS5003;58104;52.744;15.242;2023-12-07T05:54:48;0;0;
70554;PMS5003;58104;52.744;15.242;2023-12-07T05:57:13;1;1;
70554;PMS5003;58104;52.744;15.242;2023-12-07T05:59:39;1;1;
70554;PMS5003;58104;52.744;15.242;2023-12-07T06:02:04;5;5;
70554;PMS5003;58104;52.744;15.242;2023-12-07T06:04:29;9;6;
70554;PMS5003;58104;52.744;15.242;2023-12-07T06:06:55;4;4;
70554;PMS5003;58104;52.744;15.242;2023-12-07T06:09:20;7;5;
70554;PMS5003;58104;52.744;15.242;2023-12-07T06:11:45;7;5;
70554;PMS5003;58104;52.744;15.242;2023-12-07T06:14:11;5;5;
70554;PMS5003;58104;52.744;15.242;2023-12-07T06:16:36;7;7;
70554;PMS5003;58104;52.744;15.242;2023-12-07T06:19:02;7;7;
70554;PMS5003;58104;52.744;15.242;2023-12-07T06:21:27;7;7;
70554;PMS5003;58104;52.744;15.242;2023-12-07T06:23:53;12;10;
70554;PMS5003;58104;52.744;15.242;2023-12-07T06:26:18;8;8;
70554;PMS5003;58104;52.744;15.242;2023-12-07T06:28:43;12;9;
70554;PMS5003;58104;52.744;15.242;2023-12-07T06:31:09;20;15;
70554;PMS5003;58104;52.744;15.242;2023-12-07T06:33:35;18;15;
70554;PMS5003;58104;52.744;15.242;2023-12-07T06:36:00;14;13;
70554;PMS5003;58104;52.744;15.242;2023-12-07T06:38:25;80;65;
70554;PMS5003;58104;52.744;15.242;2023-12-07T06:40:51;83;77;
70554;PMS5003;58104;52.744;15.242;2023-12-07T06:43:17;100;88;
70554;PMS5003;58104;52.744;15.242;2023-12-07T06:45:42;115;105;
70554;PMS5003;58104;52.744;15.242;2023-12-07T06:48:08;122;113;
70554;PMS5003;58104;52.744;15.242;2023-12-07T06:50:33;143;123;
70554;PMS5003;58104;52.744;15.242;2023-12-07T06:52:59;138;126;
70554;PMS5003;58104;52.744;15.242;2023-12-07T06:55:25;154;132;
70554;PMS5003;58104;52.744;15.242;2023-12-07T06:57:49;158;139;
70554;PMS5003;58104;52.744;15.242;2023-12-07T07:00:15;166;143;
70554;PMS5003;58104;52.744;15.242;2023-12-07T07:02:41;157;139;
70554;PMS5003;58104;52.744;15.242;2023-12-07T07:05:06;173;147;
70554;PMS5003;58104;52.744;15.242;2023-12-07T07:07:32;175;147;
70554;PMS5003;58104;52.744;15.242;2023-12-07T07:09:57;171;151;
70554;PMS5003;58104;52.744;15.242;2023-12-07T07:12:23;164;148;
70554;PMS5003;58104;52.744;15.242;2023-12-07T07:14:48;121;107;
70554;PMS5003;58104;52.744;15.242;2023-12-07T07:17:14;34;32;
70554;PMS5003;58104;52.744;15.242;2023-12-07T07:19:39;12;9;
70554;PMS5003;58104;52.744;15.242;2023-12-07T07:22:05;4;4;
70554;PMS5003;58104;52.744;15.242;2023-12-07T07:24:30;4;3;
70554;PMS5003;58104;52.744;15.242;2023-12-07T07:26:56;2;2;
70554;PMS5003;58104;52.744;15.242;2023-12-07T07:29:21;1;1;
70554;PMS5003;58104;52.744;15.242;2023-12-07T07:31:47;4;2;
70554;PMS5003;58104;52.744;15.242;2023-12-07T07:34:12;3;3;
70554;PMS5003;58104;52.744;15.242;2023-12-07T07:36:38;2;2;
70554;PMS5003;58104;52.744;15.242;2023-12-07T07:39:03;1;1;
70554;PMS5003;58104;52.744;15.242;2023-12-07T07:41:28;1;1;
70554;PMS5003;58104;52.744;15.242;2023-12-07T07:43:54;1;1;
70554;PMS5003;58104;52.744;15.242;2023-12-07T07:46:19;0;0;
70554;PMS5003;58104;52.744;15.242;2023-12-07T07:48:45;0;0;
70554;PMS5003;58104;52.744;15.242;2023-12-07T07:51:10;0;0;
70554;PMS5003;58104;52.744;15.242;2023-12-07T07:53:36;0;0;
70554;PMS5003;58104;52.744;15.242;2023-12-07T07:56:01;0;0;
70554;PMS5003;58104;52.744;15.242;2023-12-07T07:58:26;1;0;
70554;PMS5003;58104;52.744;15.242;2023-12-07T08:00:52;1;0;
70554;PMS5003;58104;52.744;15.242;2023-12-07T08:03:17;0;0;
70554;PMS5003;58104;52.744;15.242;2023-12-07T08:05:43;2;2;
70554;PMS5003;58104;52.744;15.242;2023-12-07T08:08:08;0;0;
70554;PMS5003;58104;52.744;15.242;2023-12-07T08:10:34;1;1;
70554;PMS5003;58104;52.744;15.242;2023-12-07T08:12:59;0;0;
70554;PMS5003;58104;52.744;15.242;2023-12-07T08:15:24;1;1;
70554;PMS5003;58104;52.744;15.242;2023-12-07T08:17:50;1;1;
70554;PMS5003;58104;52.744;15.242;2023-12-07T08:20:15;2;1;
70554;PMS5003;58104;52.744;15.242;2023-12-07T08:22:41;0;0;
70554;PMS5003;58104;52.744;15.242;2023-12-07T08:25:07;1;1;
70554;PMS5003;58104;52.744;15.242;2023-12-07T08:27:32;0;0;
70554;PMS5003;58104;52.744;15.242;2023-12-07T08:29:57;0;0;
70554;PMS5003;58104;52.744;15.242;2023-12-07T08:32:22;2;0;
70554;PMS5003;58104;52.744;15.242;2023-12-07T08:34:48;0;0;
70554;PMS5003;58104;52.744;15.242;2023-12-07T08:37:13;0;0;
70554;PMS5003;58104;52.744;15.242;2023-12-07T08:39:39;0;0;
70554;PMS5003;58104;52.744;15.242;2023-12-07T08:42:04;0;0;
70554;PMS5003;58104;52.744;15.242;2023-12-07T08:44:29;0;0;
70554;PMS5003;58104;52.744;15.242;2023-12-07T08:46:55;0;0;
70554;PMS5003;58104;52.744;15.242;2023-12-07T08:49:20;0;0;
70554;PMS5003;58104;52.744;15.242;2023-12-07T08:51:46;0;0;
70554;PMS5003;58104;52.744;15.242;2023-12-07T08:54:11;1;0;
70554;PMS5003;58104;52.744;15.242;2023-12-07T08:56:37;0;0;
70554;PMS5003;58104;52.744;15.242;2023-12-07T08:59:02;0;0;
70554;PMS5003;58104;52.744;15.242;2023-12-07T09:01:27;0;0;
70554;PMS5003;58104;52.744;15.242;2023-12-07T09:03:53;0;0;
70554;PMS5003;58104;52.744;15.242;2023-12-07T09:06:18;0;0;
70554;PMS5003;58104;52.744;15.242;2023-12-07T09:08:44;3;1;
70554;PMS5003;58104;52.744;15.242;2023-12-07T09:11:09;0;0;
70554;PMS5003;58104;52.744;15.242;2023-12-07T09:13:35;0;0;
70554;PMS5003;58104;52.744;15.242;2023-12-07T09:16:00;0;0;
70554;PMS5003;58104;52.744;15.242;2023-12-07T09:18:25;0;0;
70554;PMS5003;58104;52.744;15.242;2023-12-07T09:20:51;0;0;
70554;PMS5003;58104;52.744;15.242;2023-12-07T09:23:16;1;1;
70554;PMS5003;58104;52.744;15.242;2023-12-07T09:25:42;0;0;
70554;PMS5003;58104;52.744;15.242;2023-12-07T09:28:07;2;0;
70554;PMS5003;58104;52.744;15.242;2023-12-07T09:30:32;0;0;
70554;PMS5003;58104;52.744;15.242;2023-12-07T09:32:58;2;0;
70554;PMS5003;58104;52.744;15.242;2023-12-07T09:35:23;1;1;
70554;PMS5003;58104;52.744;15.242;2023-12-07T09:37:49;0;0;
70554;PMS5003;58104;52.744;15.242;2023-12-07T09:40:14;0;0;
70554;PMS5003;58104;52.744;15.242;2023-12-07T09:42:39;0;0;
70554;PMS5003;58104;52.744;15.242;2023-12-07T09:45:05;0;0;
70554;PMS5003;58104;52.744;15.242;2023-12-07T09:47:30;0;0;
70554;PMS5003;58104;52.744;15.242;2023-12-07T09:49:56;1;1;
70554;PMS5003;58104;52.744;15.242;2023-12-07T09:52:21;0;0;
70554;PMS5003;58104;52.744;15.242;2023-12-07T09:54:46;0;0;
70554;PMS5003;58104;52.744;15.242;2023-12-07T09:57:12;1;1;
70554;PMS5003;58104;52.744;15.242;2023-12-07T09:59:38;3;2;
70554;PMS5003;58104;52.744;15.242;2023-12-07T10:02:03;2;2;
70554;PMS5003;58104;52.744;15.242;2023-12-07T10:04:28;1;1;
70554;PMS5003;58104;52.744;15.242;2023-12-07T10:06:54;1;1;
70554;PMS5003;58104;52.744;15.242;2023-12-07T10:09:19;1;1;
70554;PMS5003;58104;52.744;15.242;2023-12-07T10:11:44;1;1;
70554;PMS5003;58104;52.744;15.242;2023-12-07T10:14:10;1;1;
70554;PMS5003;58104;52.744;15.242;2023-12-07T10:16:35;1;1;
70554;PMS5003;58104;52.744;15.242;2023-12-07T10:21:31;4;1;
70554;PMS5003;58104;52.744;15.242;2023-12-07T10:23:51;1;1;
70554;PMS5003;58104;52.744;15.242;2023-12-07T10:26:17;1;0;
70554;PMS5003;58104;52.744;15.242;2023-12-07T10:28:42;1;1;
70554;PMS5003;58104;52.744;15.242;2023-12-07T10:31:08;5;5;
70554;PMS5003;58104;52.744;15.242;2023-12-07T10:33:33;6;5;
70554;PMS5003;58104;52.744;15.242;2023-12-07T10:35:58;3;3;
70554;PMS5003;58104;52.744;15.242;2023-12-07T10:38:24;3;3;
70554;PMS5003;58104;52.744;15.242;2023-12-07T10:40:49;2;2;
70554;PMS5003;58104;52.744;15.242;2023-12-07T10:43:15;2;2;
70554;PMS5003;58104;52.744;15.242;2023-12-07T10:45:40;2;2;
70554;PMS5003;58104;52.744;15.242;2023-12-07T10:48:06;1;1;
70554;PMS5003;58104;52.744;15.242;2023-12-07T10:50:31;0;0;
70554;PMS5003;58104;52.744;15.242;2023-12-07T10:52:57;3;3;
70554;PMS5003;58104;52.744;15.242;2023-12-07T10:55:22;1;1;
70554;PMS5003;58104;52.744;15.242;2023-12-07T10:57:47;0;0;
70554;PMS5003;58104;52.744;15.242;2023-12-07T11:00:13;2;2;
70554;PMS5003;58104;52.744;15.242;2023-12-07T11:02:38;0;0;
70554;PMS5003;58104;52.744;15.242;2023-12-07T11:05:03;1;1;
70554;PMS5003;58104;52.744;15.242;2023-12-07T11:07:44;0;0;
70554;PMS5003;58104;52.744;15.242;2023-12-07T11:09:57;2;0;
70554;PMS5003;58104;52.744;15.242;2023-12-07T11:12:23;0;0;
70554;PMS5003;58104;52.744;15.242;2023-12-07T11:14:45;0;0;
70554;PMS5003;58104;52.744;15.242;2023-12-07T11:17:10;0;0;
70554;PMS5003;58104;52.744;15.242;2023-12-07T11:19:44;1;1;
70554;PMS5003;58104;52.744;15.242;2023-12-07T11:22:01;0;0;
70554;PMS5003;58104;52.744;15.242;2023-12-07T11:24:26;2;1;
70554;PMS5003;58104;52.744;15.242;2023-12-07T11:26:52;2;2;
70554;PMS5003;58104;52.744;15.242;2023-12-07T11:29:19;1;1;
70554;PMS5003;58104;52.744;15.242;2023-12-07T11:31:43;2;0;
70554;PMS5003;58104;52.744;15.242;2023-12-07T11:34:08;0;0;
70554;PMS5003;58104;52.744;15.242;2023-12-07T11:36:34;2;1;
70554;PMS5003;58104;52.744;15.242;2023-12-07T11:41:24;2;1;
70554;PMS5003;58104;52.744;15.242;2023-12-07T11:43:50;1;1;
70554;PMS5003;58104;52.744;15.242;2023-12-07T11:46:15;0;0;
70554;PMS5003;58104;52.744;15.242;2023-12-07T11:48:45;3;3;
70554;PMS5003;58104;52.744;15.242;2023-12-07T11:51:06;2;2;
70554;PMS5003;58104;52.744;15.242;2023-12-07T11:53:32;4;4;
70554;PMS5003;58104;52.744;15.242;2023-12-07T11:55:57;3;3;
70554;PMS5003;58104;52.744;15.242;2023-12-07T11:58:22;2;2;
70554;PMS5003;58104;52.744;15.242;2023-12-07T12:00:48;1;1;
70554;PMS5003;58104;52.744;15.242;2023-12-07T12:03:13;2;2;
70554;PMS5003;58104;52.744;15.242;2023-12-07T12:05:38;0;0;
70554;PMS5003;58104;52.744;15.242;2023-12-07T12:08:04;1;1;
70554;PMS5003;58104;52.744;15.242;2023-12-07T12:10:29;1;1;
70554;PMS5003;58104;52.744;15.242;2023-12-07T12:12:55;0;0;
70554;PMS5003;58104;52.744;15.242;2023-12-07T12:15:20;0;0;
70554;PMS5003;58104;52.744;15.242;2023-12-07T12:17:46;2;2;
70554;PMS5003;58104;52.744;15.242;2023-12-07T12:20:11;2;2;
70554;PMS5003;58104;52.744;15.242;2023-12-07T12:22:36;2;2;
70554;PMS5003;58104;52.744;15.242;2023-12-07T12:25:02;2;2;
70554;PMS5003;58104;52.744;15.242;2023-12-07T12:27:27;1;0;
70554;PMS5003;58104;52.744;15.242;2023-12-07T12:29:52;2;2;
70554;PMS5003;58104;52.744;15.242;2023-12-07T12:32:18;3;1;
70554;PMS5003;58104;52.744;15.242;2023-12-07T12:34:43;3;2;
70554;PMS5003;58104;52.744;15.242;2023-12-07T12:37:09;3;2;
70554;PMS5003;58104;52.744;15.242;2023-12-07T12:39:34;5;2;
70554;PMS5003;58104;52.744;15.242;2023-12-07T12:42:00;2;2;
70554;PMS5003;58104;52.744;15.242;2023-12-07T12:44:25;7;7;
70554;PMS5003;58104;52.744;15.242;2023-12-07T12:46:51;7;6;
70554;PMS5003;58104;52.744;15.242;2023-12-07T12:49:16;7;6;
70554;PMS5003;58104;52.744;15.242;2023-12-07T12:51:41;5;5;
70554;PMS5003;58104;52.744;15.242;2023-12-07T12:54:07;6;6;
70554;PMS5003;58104;52.744;15.242;2023-12-07T12:56:32;6;6;
70554;PMS5003;58104;52.744;15.242;2023-12-07T12:58:57;8;5;
70554;PMS5003;58104;52.744;15.242;2023-12-07T13:01:23;10;9;
70554;PMS5003;58104;52.744;15.242;2023-12-07T13:03:48;7;6;
70554;PMS5003;58104;52.744;15.242;2023-12-07T13:06:14;11;9;
70554;PMS5003;58104;52.744;15.242;2023-12-07T13:08:39;8;6;
70554;PMS5003;58104;52.744;15.242;2023-12-07T13:11:05;10;7;
70554;PMS5003;58104;52.744;15.242;2023-12-07T13:13:30;11;9;
70554;PMS5003;58104;52.744;15.242;2023-12-07T13:15:55;9;6;
70554;PMS5003;58104;52.744;15.242;2023-12-07T13:18:21;3;3;
70554;PMS5003;58104;52.744;15.242;2023-12-07T13:20:46;4;2;
70554;PMS5003;58104;52.744;15.242;2023-12-07T13:23:12;2;2;
70554;PMS5003;58104;52.744;15.242;2023-12-07T13:25:37;2;2;
70554;PMS5003;58104;52.744;15.242;2023-12-07T13:28:03;1;1;
70554;PMS5003;58104;52.744;15.242;2023-12-07T13:30:28;0;0;
70554;PMS5003;58104;52.744;15.242;2023-12-07T13:32:54;0;0;
70554;PMS5003;58104;52.744;15.242;2023-12-07T13:35:19;0;0;
70554;PMS5003;58104;52.744;15.242;2023-12-07T13:37:44;1;1;
70554;PMS5003;58104;52.744;15.242;2023-12-07T13:40:10;1;1;
70554;PMS5003;58104;52.744;15.242;2023-12-07T13:42:35;1;1;
70554;PMS5003;58104;52.744;15.242;2023-12-07T13:45:01;1;1;
70554;PMS5003;58104;52.744;15.242;2023-12-07T13:47:27;1;1;
70554;PMS5003;58104;52.744;15.242;2023-12-07T13:49:51;0;0;
70554;PMS5003;58104;52.744;15.242;2023-12-07T13:52:17;2;2;
70554;PMS5003;58104;52.744;15.242;2023-12-07T13:54:42;2;2;
70554;PMS5003;58104;52.744;15.242;2023-12-07T13:57:08;2;0;
70554;PMS5003;58104;52.744;15.242;2023-12-07T13:59:33;2;2;
70554;PMS5003;58104;52.744;15.242;2023-12-07T14:01:58;4;4;
70554;PMS5003;58104;52.744;15.242;2023-12-07T14:04:24;2;2;
70554;PMS5003;58104;52.744;15.242;2023-12-07T14:06:49;1;0;
70554;PMS5003;58104;52.744;15.242;2023-12-07T14:09:15;1;0;
70554;PMS5003;58104;52.744;15.242;2023-12-07T14:11:40;2;1;
70554;PMS5003;58104;52.744;15.242;2023-12-07T14:14:06;0;0;
70554;PMS5003;58104;52.744;15.242;2023-12-07T14:16:31;0;0;
70554;PMS5003;58104;52.744;15.242;2023-12-07T14:18:56;0;0;
70554;PMS5003;58104;52.744;15.242;2023-12-07T14:21:22;1;1;
70554;PMS5003;58104;52.744;15.242;2023-12-07T14:23:47;0;0;
70554;PMS5003;58104;52.744;15.242;2023-12-07T14:26:13;0;0;
70554;PMS5003;58104;52.744;15.242;2023-12-07T14:28:38;0;0;
70554;PMS5003;58104;52.744;15.242;2023-12-07T14:31:04;0;0;
70554;PMS5003;58104;52.744;15.242;2023-12-07T14:33:29;1;1;
70554;PMS5003;58104;52.744;15.242;2023-12-07T14:35:54;2;2;
70554;PMS5003;58104;52.744;15.242;2023-12-07T14:38:20;3;3;
70554;PMS5003;58104;52.744;15.242;2023-12-07T14:40:45;3;3;
70554;PMS5003;58104;52.744;15.242;2023-12-07T14:43:11;6;3;
70554;PMS5003;58104;52.744;15.242;2023-12-07T14:45:36;7;7;
70554;PMS5003;58104;52.744;15.242;2023-12-07T14:48:01;5;4;
70554;PMS5003;58104;52.744;15.242;2023-12-07T14:50:27;10;8;
70554;PMS5003;58104;52.744;15.242;2023-12-07T14:52:52;10;8;
70554;PMS5003;58104;52.744;15.242;2023-12-07T14:55:17;10;10;
70554;PMS5003;58104;52.744;15.242;2023-12-07T14:57:43;8;7;
70554;PMS5003;58104;52.744;15.242;2023-12-07T15:00:08;9;9;
70554;PMS5003;58104;52.744;15.242;2023-12-07T15:02:34;9;7;
70554;PMS5003;58104;52.744;15.242;2023-12-07T15:04:59;11;11;
70554;PMS5003;58104;52.744;15.242;2023-12-07T15:07:24;11;9;
70554;PMS5003;58104;52.744;15.242;2023-12-07T15:09:50;14;12;
70554;PMS5003;58104;52.744;15.242;2023-12-07T15:12:15;14;14;
70554;PMS5003;58104;52.744;15.242;2023-12-07T15:14:40;12;12;
70554;PMS5003;58104;52.744;15.242;2023-12-07T15:17:06;15;15;
70554;PMS5003;58104;52.744;15.242;2023-12-07T15:19:31;12;12;
70554;PMS5003;58104;52.744;15.242;2023-12-07T15:21:56;17;11;
70554;PMS5003;58104;52.744;15.242;2023-12-07T15:24:22;13;12;
70554;PMS5003;58104;52.744;15.242;2023-12-07T15:26:47;15;15;
70554;PMS5003;58104;52.744;15.242;2023-12-07T15:29:12;14;13;
70554;PMS5003;58104;52.744;15.242;2023-12-07T15:31:38;15;14;
70554;PMS5003;58104;52.744;15.242;2023-12-07T15:34:03;15;12;
70554;PMS5003;58104;52.744;15.242;2023-12-07T15:36:28;12;10;
70554;PMS5003;58104;52.744;15.242;2023-12-07T15:38:53;12;12;
70554;PMS5003;58104;52.744;15.242;2023-12-07T15:41:18;15;12;
70554;PMS5003;58104;52.744;15.242;2023-12-07T15:43:44;16;14;
70554;PMS5003;58104;52.744;15.242;2023-12-07T15:46:10;14;13;
70554;PMS5003;58104;52.744;15.242;2023-12-07T15:48:35;13;11;
70554;PMS5003;58104;52.744;15.242;2023-12-07T15:51:00;16;16;
70554;PMS5003;58104;52.744;15.242;2023-12-07T15:53:25;16;13;
70554;PMS5003;58104;52.744;15.242;2023-12-07T15:55:51;13;11;
70554;PMS5003;58104;52.744;15.242;2023-12-07T15:58:16;13;11;
70554;PMS5003;58104;52.744;15.242;2023-12-07T16:00:41;19;16;
70554;PMS5003;58104;52.744;15.242;2023-12-07T16:03:06;25;22;
70554;PMS5003;58104;52.744;15.242;2023-12-07T16:05:32;19;17;
70554;PMS5003;58104;52.744;15.242;2023-12-07T16:07:57;19;17;
70554;PMS5003;58104;52.744;15.242;2023-12-07T16:10:23;19;18;
70554;PMS5003;58104;52.744;15.242;2023-12-07T16:12:49;23;21;
70554;PMS5003;58104;52.744;15.242;2023-12-07T16:15:14;20;17;
70554;PMS5003;58104;52.744;15.242;2023-12-07T16:17:39;24;23;
70554;PMS5003;58104;52.744;15.242;2023-12-07T16:20:06;21;17;
70554;PMS5003;58104;52.744;15.242;2023-12-07T16:22:30;21;17;